sensor_id;sensor_type;location;lat;lon;timestamp;P1;durP1;ratioP1;P2;durP2;ratioP2
52964;SDS011;42923;53.220;6.528;2022-10-16T14:03:32;10.15;;;2.58;;
52964;SDS011;42923;53.220;6.528;2022-10-16T14:06:01;11.90;;;2.70;;
52964;SDS011;42923;53.220;6.528;2022-10-16T14:08:30;13.75;;;2.45;;
52964;SDS011;42923;53.220;6.528;2022-10-16T14:10:57;12.90;;;2.85;;
52964;SDS011;42923;53.220;6.528;2022-10-16T14:13:33;9.35;;;2.90;;
52964;SDS011;42923;53.220;6.528;2022-10-16T14:16:08;11.27;;;2.40;;
52964;SDS011;42923;53.220;6.528;2022-10-16T14:18:37;9.70;;;2.80;;
52964;SDS011;42923;53.220;6.528;2022-10-16T14:21:11;14.35;;;3.70;;
52964;SDS011;42923;53.220;6.528;2022-10-16T14:23:40;14.10;;;3.00;;
52964;SDS011;42923;53.220;6.528;2022-10-16T14:28:32;11.57;;;3.08;;
52964;SDS011;42923;53.220;6.528;2022-10-16T14:30:58;10.38;;;2.95;;
52964;SDS011;42923;53.220;6.528;2022-10-16T14:36:13;10.05;;;2.55;;
52964;SDS011;42923;53.220;6.528;2022-10-16T14:38:48;10.20;;;2.20;;
52964;SDS011;42923;53.220;6.528;2022-10-16T14:41:20;11.63;;;2.50;;
52964;SDS011;42923;53.220;6.528;2022-10-16T14:43:49;14.35;;;3.03;;
52964;SDS011;42923;53.220;6.528;2022-10-16T14:46:18;12.32;;;3.05;;
52964;SDS011;42923;53.220;6.528;2022-10-16T14:48:47;13.57;;;2.55;;
52964;SDS011;42923;53.220;6.528;2022-10-16T14:51:16;17.85;;;6.03;;
52964;SDS011;42923;53.220;6.528;2022-10-16T14:53:42;22.05;;;5.75;;
52964;SDS011;42923;53.220;6.528;2022-10-16T14:56:09;14.00;;;2.80;;
52964;SDS011;42923;53.220;6.528;2022-10-16T15:01:10;19.33;;;3.13;;
52964;SDS011;42923;53.220;6.528;2022-10-16T15:03:36;12.98;;;3.10;;
52964;SDS011;42923;53.220;6.528;2022-10-16T15:06:03;11.18;;;2.60;;
52964;SDS011;42923;53.220;6.528;2022-10-16T15:08:34;11.48;;;2.50;;
52964;SDS011;42923;53.220;6.528;2022-10-16T15:11:00;10.13;;;3.03;;
52964;SDS011;42923;53.220;6.528;2022-10-16T15:13:26;13.32;;;2.80;;
52964;SDS011;42923;53.220;6.528;2022-10-16T15:15:51;13.63;;;3.20;;
52964;SDS011;42923;53.220;6.528;2022-10-16T15:18:18;14.38;;;2.88;;
52964;SDS011;42923;53.220;6.528;2022-10-16T15:20:47;8.82;;;2.97;;
52964;SDS011;42923;53.220;6.528;2022-10-16T15:23:15;10.88;;;2.80;;
52964;SDS011;42923;53.220;6.528;2022-10-16T15:28:12;15.90;;;3.20;;
52964;SDS011;42923;53.220;6.528;2022-10-16T15:30:39;14.32;;;3.28;;
52964;SDS011;42923;53.220;6.528;2022-10-16T15:33:09;13.35;;;3.47;;
52964;SDS011;42923;53.220;6.528;2022-10-16T15:35:38;14.85;;;2.88;;
52964;SDS011;42923;53.220;6.528;2022-10-16T15:38:04;15.20;;;3.47;;
52964;SDS011;42923;53.220;6.528;2022-10-16T15:40:30;14.43;;;3.20;;
52964;SDS011;42923;53.220;6.528;2022-10-16T15:42:56;9.02;;;2.80;;
52964;SDS011;42923;53.220;6.528;2022-10-16T15:45:21;14.38;;;3.25;;
52964;SDS011;42923;53.220;6.528;2022-10-16T15:47:47;12.77;;;2.80;;
52964;SDS011;42923;53.220;6.528;2022-10-16T15:50:14;13.38;;;3.15;;
52964;SDS011;42923;53.220;6.528;2022-10-16T15:52:40;11.23;;;3.25;;
52964;SDS011;42923;53.220;6.528;2022-10-16T15:56:44;17.55;;;4.00;;
52964;SDS011;42923;53.220;6.528;2022-10-16T15:59:10;12.75;;;3.00;;
52964;SDS011;42923;53.220;6.528;2022-10-16T16:01:36;15.85;;;3.53;;
52964;SDS011;42923;53.220;6.528;2022-10-16T16:04:02;15.13;;;3.47;;
52964;SDS011;42923;53.220;6.528;2022-10-16T16:06:29;13.98;;;3.10;;
52964;SDS011;42923;53.220;6.528;2022-10-16T16:08:55;12.48;;;2.75;;
52964;SDS011;42923;53.220;6.528;2022-10-16T16:11:21;9.68;;;2.80;;
52964;SDS011;42923;53.220;6.528;2022-10-16T16:13:48;12.70;;;3.17;;
52964;SDS011;42923;53.220;6.528;2022-10-16T16:16:15;10.35;;;2.80;;
52964;SDS011;42923;53.220;6.528;2022-10-16T16:18:42;14.10;;;3.72;;
52964;SDS011;42923;53.220;6.528;2022-10-16T16:21:09;12.73;;;3.58;;
52964;SDS011;42923;53.220;6.528;2022-10-16T16:23:37;7.32;;;2.50;;
52964;SDS011;42923;53.220;6.528;2022-10-16T16:26:13;13.82;;;4.28;;
52964;SDS011;42923;53.220;6.528;2022-10-16T16:28:46;15.25;;;4.07;;
52964;SDS011;42923;53.220;6.528;2022-10-16T16:31:12;13.65;;;6.20;;
52964;SDS011;42923;53.220;6.528;2022-10-16T16:33:38;23.67;;;7.15;;
52964;SDS011;42923;53.220;6.528;2022-10-16T16:36:04;17.63;;;6.00;;
52964;SDS011;42923;53.220;6.528;2022-10-16T16:38:31;29.70;;;10.57;;
52964;SDS011;42923;53.220;6.528;2022-10-16T16:40:58;20.25;;;10.10;;
52964;SDS011;42923;53.220;6.528;2022-10-16T16:43:24;19.88;;;9.25;;
52964;SDS011;42923;53.220;6.528;2022-10-16T16:45:51;21.75;;;8.60;;
52964;SDS011;42923;53.220;6.528;2022-10-16T16:48:18;11.88;;;7.55;;
52964;SDS011;42923;53.220;6.528;2022-10-16T16:50:44;19.38;;;7.55;;
52964;SDS011;42923;53.220;6.528;2022-10-16T16:53:10;26.60;;;6.82;;
52964;SDS011;42923;53.220;6.528;2022-10-16T16:55:35;19.45;;;4.97;;
52964;SDS011;42923;53.220;6.528;2022-10-16T16:58:01;15.35;;;4.45;;
52964;SDS011;42923;53.220;6.528;2022-10-16T17:00:28;21.08;;;4.85;;
52964;SDS011;42923;53.220;6.528;2022-10-16T17:02:56;14.20;;;3.70;;
52964;SDS011;42923;53.220;6.528;2022-10-16T17:05:22;11.18;;;3.20;;
52964;SDS011;42923;53.220;6.528;2022-10-16T17:07:48;18.65;;;4.03;;
52964;SDS011;42923;53.220;6.528;2022-10-16T17:10:14;15.48;;;3.47;;
52964;SDS011;42923;53.220;6.528;2022-10-16T17:12:40;11.15;;;3.67;;
52964;SDS011;42923;53.220;6.528;2022-10-16T17:15:06;16.83;;;4.28;;
52964;SDS011;42923;53.220;6.528;2022-10-16T17:17:32;14.15;;;5.22;;
52964;SDS011;42923;53.220;6.528;2022-10-16T17:19:58;18.90;;;4.70;;
52964;SDS011;42923;53.220;6.528;2022-10-16T17:22:23;15.60;;;4.22;;
52964;SDS011;42923;53.220;6.528;2022-10-16T17:24:49;20.38;;;5.80;;
52964;SDS011;42923;53.220;6.528;2022-10-16T17:27:16;22.60;;;8.32;;
52964;SDS011;42923;53.220;6.528;2022-10-16T17:29:43;21.00;;;6.18;;
52964;SDS011;42923;53.220;6.528;2022-10-16T17:32:09;14.73;;;4.53;;
52964;SDS011;42923;53.220;6.528;2022-10-16T17:34:35;20.50;;;4.60;;
52964;SDS011;42923;53.220;6.528;2022-10-16T17:37:01;21.98;;;4.57;;
52964;SDS011;42923;53.220;6.528;2022-10-16T17:39:26;15.73;;;4.03;;
52964;SDS011;42923;53.220;6.528;2022-10-16T17:41:52;13.98;;;4.25;;
52964;SDS011;42923;53.220;6.528;2022-10-16T17:44:18;13.90;;;3.92;;
52964;SDS011;42923;53.220;6.528;2022-10-16T17:46:47;16.60;;;4.53;;
52964;SDS011;42923;53.220;6.528;2022-10-16T17:49:14;21.88;;;4.25;;
52964;SDS011;42923;53.220;6.528;2022-10-16T17:51:40;19.73;;;3.50;;
52964;SDS011;42923;53.220;6.528;2022-10-16T17:54:05;17.52;;;3.58;;
52964;SDS011;42923;53.220;6.528;2022-10-16T17:56:31;15.40;;;4.13;;
52964;SDS011;42923;53.220;6.528;2022-10-16T17:58:58;14.63;;;4.13;;
52964;SDS011;42923;53.220;6.528;2022-10-16T18:01:27;14.40;;;4.18;;
52964;SDS011;42923;53.220;6.528;2022-10-16T18:03:58;12.93;;;4.00;;
52964;SDS011;42923;53.220;6.528;2022-10-16T18:06:25;12.70;;;3.95;;
52964;SDS011;42923;53.220;6.528;2022-10-16T18:08:52;10.90;;;3.50;;
52964;SDS011;42923;53.220;6.528;2022-10-16T18:11:19;14.80;;;4.50;;
52964;SDS011;42923;53.220;6.528;2022-10-16T18:13:45;14.98;;;5.40;;
52964;SDS011;42923;53.220;6.528;2022-10-16T18:16:12;21.00;;;4.70;;
52964;SDS011;42923;53.220;6.528;2022-10-16T18:18:40;11.85;;;4.55;;
52964;SDS011;42923;53.220;6.528;2022-10-16T18:21:07;15.32;;;5.07;;
52964;SDS011;42923;53.220;6.528;2022-10-16T18:23:35;16.60;;;4.88;;
52964;SDS011;42923;53.220;6.528;2022-10-16T18:26:03;15.20;;;4.82;;
52964;SDS011;42923;53.220;6.528;2022-10-16T18:28:30;18.92;;;6.53;;
52964;SDS011;42923;53.220;6.528;2022-10-16T18:31:00;21.15;;;5.82;;
52964;SDS011;42923;53.220;6.528;2022-10-16T18:33:27;23.95;;;6.43;;
52964;SDS011;42923;53.220;6.528;2022-10-16T18:36:00;17.88;;;5.15;;
52964;SDS011;42923;53.220;6.528;2022-10-16T18:38:27;11.60;;;5.45;;
52964;SDS011;42923;53.220;6.528;2022-10-16T18:40:54;23.13;;;9.02;;
52964;SDS011;42923;53.220;6.528;2022-10-16T18:43:21;37.35;;;21.42;;
52964;SDS011;42923;53.220;6.528;2022-10-16T18:45:54;22.70;;;6.78;;
52964;SDS011;42923;53.220;6.528;2022-10-16T18:48:23;21.08;;;6.22;;
52964;SDS011;42923;53.220;6.528;2022-10-16T18:50:53;14.85;;;6.07;;
52964;SDS011;42923;53.220;6.528;2022-10-16T18:53:19;21.13;;;7.10;;
52964;SDS011;42923;53.220;6.528;2022-10-16T18:55:51;20.00;;;6.50;;
52964;SDS011;42923;53.220;6.528;2022-10-16T18:58:17;19.38;;;7.07;;
52964;SDS011;42923;53.220;6.528;2022-10-16T19:00:43;20.23;;;7.57;;
52964;SDS011;42923;53.220;6.528;2022-10-16T19:03:09;14.85;;;6.72;;
52964;SDS011;42923;53.220;6.528;2022-10-16T19:05:34;19.45;;;6.82;;
52964;SDS011;42923;53.220;6.528;2022-10-16T19:08:00;22.92;;;7.60;;
52964;SDS011;42923;53.220;6.528;2022-10-16T19:10:26;18.05;;;9.10;;
52964;SDS011;42923;53.220;6.528;2022-10-16T19:12:52;20.20;;;7.20;;
52964;SDS011;42923;53.220;6.528;2022-10-16T19:15:17;16.55;;;7.05;;
52964;SDS011;42923;53.220;6.528;2022-10-16T19:17:43;21.90;;;9.40;;
52964;SDS011;42923;53.220;6.528;2022-10-16T19:20:09;20.50;;;8.10;;
52964;SDS011;42923;53.220;6.528;2022-10-16T19:22:34;25.13;;;8.23;;
52964;SDS011;42923;53.220;6.528;2022-10-16T19:25:21;20.75;;;8.45;;
52964;SDS011;42923;53.220;6.528;2022-10-16T19:27:47;31.00;;;12.88;;
52964;SDS011;42923;53.220;6.528;2022-10-16T19:30:16;28.40;;;9.25;;
52964;SDS011;42923;53.220;6.528;2022-10-16T19:32:43;21.92;;;9.02;;
52964;SDS011;42923;53.220;6.528;2022-10-16T19:35:10;19.38;;;8.43;;
52964;SDS011;42923;53.220;6.528;2022-10-16T19:37:36;30.65;;;8.48;;
52964;SDS011;42923;53.220;6.528;2022-10-16T19:40:03;22.75;;;9.10;;
52964;SDS011;42923;53.220;6.528;2022-10-16T19:42:29;19.48;;;7.93;;
52964;SDS011;42923;53.220;6.528;2022-10-16T19:44:55;22.25;;;8.63;;
52964;SDS011;42923;53.220;6.528;2022-10-16T19:47:20;18.60;;;8.10;;
52964;SDS011;42923;53.220;6.528;2022-10-16T19:49:46;20.58;;;7.72;;
52964;SDS011;42923;53.220;6.528;2022-10-16T19:52:14;20.60;;;8.07;;
52964;SDS011;42923;53.220;6.528;2022-10-16T19:54:41;23.70;;;8.00;;
52964;SDS011;42923;53.220;6.528;2022-10-16T19:57:07;24.55;;;7.35;;
52964;SDS011;42923;53.220;6.528;2022-10-16T19:59:33;22.23;;;7.05;;
52964;SDS011;42923;53.220;6.528;2022-10-16T20:01:59;16.73;;;7.00;;
52964;SDS011;42923;53.220;6.528;2022-10-16T20:04:25;20.85;;;7.63;;
52964;SDS011;42923;53.220;6.528;2022-10-16T20:06:51;17.77;;;7.35;;
52964;SDS011;42923;53.220;6.528;2022-10-16T20:09:17;24.40;;;7.30;;
52964;SDS011;42923;53.220;6.528;2022-10-16T20:11:42;27.25;;;6.90;;
52964;SDS011;42923;53.220;6.528;2022-10-16T20:14:08;17.40;;;6.57;;
52964;SDS011;42923;53.220;6.528;2022-10-16T20:16:34;25.55;;;7.75;;
52964;SDS011;42923;53.220;6.528;2022-10-16T20:19:01;18.98;;;7.82;;
52964;SDS011;42923;53.220;6.528;2022-10-16T20:21:28;25.15;;;7.10;;
52964;SDS011;42923;53.220;6.528;2022-10-16T20:23:55;11.80;;;5.65;;
52964;SDS011;42923;53.220;6.528;2022-10-16T20:26:22;16.05;;;6.10;;
52964;SDS011;42923;53.220;6.528;2022-10-16T20:28:50;17.27;;;6.53;;
52964;SDS011;42923;53.220;6.528;2022-10-16T20:31:19;21.80;;;7.25;;
52964;SDS011;42923;53.220;6.528;2022-10-16T20:33:47;21.75;;;6.45;;
52964;SDS011;42923;53.220;6.528;2022-10-16T20:36:17;21.63;;;7.88;;
52964;SDS011;42923;53.220;6.528;2022-10-16T20:38:44;18.23;;;6.78;;
52964;SDS011;42923;53.220;6.528;2022-10-16T20:41:10;19.63;;;6.57;;
52964;SDS011;42923;53.220;6.528;2022-10-16T20:43:44;20.75;;;7.00;;
52964;SDS011;42923;53.220;6.528;2022-10-16T20:46:12;14.55;;;6.40;;
52964;SDS011;42923;53.220;6.528;2022-10-16T20:48:39;19.27;;;6.32;;
52964;SDS011;42923;53.220;6.528;2022-10-16T20:53:38;16.30;;;6.10;;
52964;SDS011;42923;53.220;6.528;2022-10-16T20:56:04;16.05;;;5.63;;
52964;SDS011;42923;53.220;6.528;2022-10-16T20:58:30;14.43;;;5.57;;
52964;SDS011;42923;53.220;6.528;2022-10-16T21:00:55;12.93;;;5.50;;
52964;SDS011;42923;53.220;6.528;2022-10-16T21:03:36;17.90;;;6.63;;
52964;SDS011;42923;53.220;6.528;2022-10-16T21:06:03;18.85;;;6.22;;
52964;SDS011;42923;53.220;6.528;2022-10-16T21:08:30;16.25;;;5.60;;
52964;SDS011;42923;53.220;6.528;2022-10-16T21:10:59;12.00;;;5.07;;
52964;SDS011;42923;53.220;6.528;2022-10-16T21:13:25;15.40;;;5.85;;
52964;SDS011;42923;53.220;6.528;2022-10-16T21:15:51;14.30;;;5.22;;
52964;SDS011;42923;53.220;6.528;2022-10-16T21:18:17;12.73;;;5.65;;
52964;SDS011;42923;53.220;6.528;2022-10-16T21:20:42;16.08;;;5.65;;
52964;SDS011;42923;53.220;6.528;2022-10-16T21:23:09;18.17;;;5.47;;
52964;SDS011;42923;53.220;6.528;2022-10-16T21:25:34;17.88;;;5.15;;
52964;SDS011;42923;53.220;6.528;2022-10-16T21:28:00;13.18;;;4.65;;
52964;SDS011;42923;53.220;6.528;2022-10-16T21:30:26;10.60;;;5.93;;
52964;SDS011;42923;53.220;6.528;2022-10-16T21:32:51;16.85;;;4.78;;
52964;SDS011;42923;53.220;6.528;2022-10-16T21:35:17;13.88;;;5.03;;
52964;SDS011;42923;53.220;6.528;2022-10-16T21:37:47;7.20;;;3.95;;
52964;SDS011;42923;53.220;6.528;2022-10-16T21:40:13;14.93;;;4.80;;
52964;SDS011;42923;53.220;6.528;2022-10-16T21:42:39;12.60;;;4.80;;
52964;SDS011;42923;53.220;6.528;2022-10-16T21:45:04;11.48;;;5.20;;
52964;SDS011;42923;53.220;6.528;2022-10-16T21:47:30;12.95;;;5.20;;
52964;SDS011;42923;53.220;6.528;2022-10-16T21:49:58;16.52;;;5.20;;
52964;SDS011;42923;53.220;6.528;2022-10-16T21:52:23;20.85;;;5.22;;
52964;SDS011;42923;53.220;6.528;2022-10-16T21:54:49;15.95;;;6.07;;
52964;SDS011;42923;53.220;6.528;2022-10-16T21:57:15;12.70;;;5.53;;
52964;SDS011;42923;53.220;6.528;2022-10-16T21:59:40;11.98;;;5.18;;
52964;SDS011;42923;53.220;6.528;2022-10-16T22:02:06;11.55;;;5.80;;
52964;SDS011;42923;53.220;6.528;2022-10-16T22:04:32;16.63;;;5.60;;
52964;SDS011;42923;53.220;6.528;2022-10-16T22:06:58;11.27;;;5.32;;
52964;SDS011;42923;53.220;6.528;2022-10-16T22:09:24;10.93;;;4.65;;
52964;SDS011;42923;53.220;6.528;2022-10-16T22:11:49;11.32;;;5.53;;
52964;SDS011;42923;53.220;6.528;2022-10-16T22:14:16;14.57;;;5.25;;
52964;SDS011;42923;53.220;6.528;2022-10-16T22:16:43;15.13;;;5.32;;
52964;SDS011;42923;53.220;6.528;2022-10-16T22:19:11;13.15;;;5.10;;
52964;SDS011;42923;53.220;6.528;2022-10-16T22:21:38;18.30;;;7.90;;
52964;SDS011;42923;53.220;6.528;2022-10-16T22:24:05;9.43;;;5.25;;
52964;SDS011;42923;53.220;6.528;2022-10-16T22:26:31;10.05;;;4.43;;
52964;SDS011;42923;53.220;6.528;2022-10-16T22:28:57;20.70;;;5.57;;
52964;SDS011;42923;53.220;6.528;2022-10-16T22:31:23;12.15;;;5.47;;
52964;SDS011;42923;53.220;6.528;2022-10-16T22:36:41;11.63;;;5.28;;
52964;SDS011;42923;53.220;6.528;2022-10-16T22:39:07;13.70;;;6.38;;
52964;SDS011;42923;53.220;6.528;2022-10-16T22:41:33;11.02;;;5.15;;
52964;SDS011;42923;53.220;6.528;2022-10-16T22:44:01;12.48;;;5.47;;
52964;SDS011;42923;53.220;6.528;2022-10-16T22:46:27;10.23;;;5.72;;
52964;SDS011;42923;53.220;6.528;2022-10-16T22:48:54;14.10;;;5.78;;
52964;SDS011;42923;53.220;6.528;2022-10-16T22:51:20;12.30;;;5.38;;
52964;SDS011;42923;53.220;6.528;2022-10-16T22:53:48;13.75;;;5.18;;
52964;SDS011;42923;53.220;6.528;2022-10-16T22:56:15;8.60;;;4.68;;
52964;SDS011;42923;53.220;6.528;2022-10-16T22:58:42;15.05;;;5.28;;
52964;SDS011;42923;53.220;6.528;2022-10-16T23:01:22;9.77;;;4.28;;
52964;SDS011;42923;53.220;6.528;2022-10-16T23:03:56;14.55;;;4.78;;
52964;SDS011;42923;53.220;6.528;2022-10-16T23:06:22;11.32;;;5.22;;
52964;SDS011;42923;53.220;6.528;2022-10-16T23:08:51;15.38;;;5.68;;
52964;SDS011;42923;53.220;6.528;2022-10-16T23:11:18;16.50;;;5.75;;
52964;SDS011;42923;53.220;6.528;2022-10-16T23:13:45;11.10;;;4.85;;
52964;SDS011;42923;53.220;6.528;2022-10-16T23:16:11;15.70;;;4.97;;
52964;SDS011;42923;53.220;6.528;2022-10-16T23:18:39;14.63;;;4.93;;
52964;SDS011;42923;53.220;6.528;2022-10-16T23:21:07;12.95;;;5.05;;
52964;SDS011;42923;53.220;6.528;2022-10-16T23:23:34;11.23;;;4.88;;
52964;SDS011;42923;53.220;6.528;2022-10-16T23:26:01;17.88;;;4.68;;
52964;SDS011;42923;53.220;6.528;2022-10-16T23:28:28;18.63;;;5.40;;
52964;SDS011;42923;53.220;6.528;2022-10-16T23:30:53;12.93;;;5.10;;
52964;SDS011;42923;53.220;6.528;2022-10-16T23:33:19;9.63;;;5.15;;
52964;SDS011;42923;53.220;6.528;2022-10-16T23:35:45;10.32;;;5.18;;
52964;SDS011;42923;53.220;6.528;2022-10-16T23:38:10;16.20;;;5.22;;
52964;SDS011;42923;53.220;6.528;2022-10-16T23:40:36;15.50;;;5.32;;
52964;SDS011;42923;53.220;6.528;2022-10-16T23:43:02;11.82;;;5.55;;
52964;SDS011;42923;53.220;6.528;2022-10-16T23:45:27;11.75;;;4.93;;
52964;SDS011;42923;53.220;6.528;2022-10-16T23:47:53;11.05;;;5.38;;
52964;SDS011;42923;53.220;6.528;2022-10-16T23:50:19;17.40;;;5.00;;
52964;SDS011;42923;53.220;6.528;2022-10-16T23:52:45;16.70;;;5.35;;
52964;SDS011;42923;53.220;6.528;2022-10-16T23:55:10;9.52;;;4.63;;
52964;SDS011;42923;53.220;6.528;2022-10-16T23:57:36;14.18;;;4.68;;
